Time;durP1;ratioP1;P1;durP2;ratioP2;P2;SDS_P1;SDS_P2;PMS_P1;PMS_P2;Temp;Humidity;BMP_temperature;BMP_pressure;BME280_temperature;BME280_humidity;BME280_pressure;Samples;Min_cycle;Max_cycle;Signal;HPM_P1;HPM_P2
2023/03/06 00:01:09;;;;;;;27.50;9.78;;;;;;;8.14;75.65;100281.78;1854952;77;21023;-57
2023/03/06 00:03:38;;;;;;;28.73;9.83;;;;;;;8.14;75.56;100283.09;1850975;77;21170;-58
2023/03/06 00:06:07;;;;;;;38.20;10.75;;;;;;;8.11;75.45;100284.92;1852733;77;21028;-59
2023/03/06 00:08:36;;;;;;;36.98;11.03;;;;;;;8.10;75.37;100287.13;1862196;77;21039;-50
2023/03/06 00:11:05;;;;;;;31.75;11.08;;;;;;;8.08;75.37;100278.92;1867759;77;21020;-50
2023/03/06 00:13:33;;;;;;;29.87;10.10;;;;;;;8.05;75.40;100281.19;1858373;77;21156;-51
2023/03/06 00:16:03;;;;;;;31.20;11.15;;;;;;;8.02;75.44;100280.44;1851804;77;21083;-51
2023/03/06 00:18:33;;;;;;;33.88;11.53;;;;;;;7.98;75.43;100281.00;1856445;77;21618;-52
2023/03/06 00:21:01;;;;;;;27.10;10.95;;;;;;;7.94;75.48;100278.09;1867921;77;21121;-57
2023/03/06 00:23:30;;;;;;;28.38;9.85;;;;;;;7.92;75.48;100270.74;1866427;75;21212;-60
2023/03/06 00:25:59;;;;;;;32.50;11.38;;;;;;;7.90;75.52;100269.95;1859212;76;21004;-45
2023/03/06 00:28:30;;;;;;;31.42;10.08;;;;;;;7.87;75.67;100270.04;1863271;77;21032;-61
2023/03/06 00:30:57;;;;;;;44.53;12.58;;;;;;;7.82;75.92;100256.23;1868746;76;21110;-60
2023/03/06 00:33:26;;;;;;;30.72;9.80;;;;;;;7.79;76.11;100254.59;1865260;77;21034;-61
2023/03/06 00:35:55;;;;;;;26.07;9.38;;;;;;;7.76;76.27;100259.93;1841610;77;21127;-49
2023/03/06 00:38:26;;;;;;;25.48;9.68;;;;;;;7.72;76.41;100259.18;1863433;77;21024;-56
2023/03/06 00:40:54;;;;;;;25.57;8.78;;;;;;;7.69;76.55;100254.06;1848499;77;21056;-56
2023/03/06 00:43:22;;;;;;;27.13;9.43;;;;;;;7.64;76.71;100257.76;1841735;78;21129;-57
2023/03/06 00:45:51;;;;;;;30.20;9.03;;;;;;;7.61;76.79;100265.72;1828833;77;21149;-49
2023/03/06 00:48:19;;;;;;;26.55;9.58;;;;;;;7.58;76.91;100261.45;1840660;78;21031;-57
2023/03/06 00:50:48;;;;;;;24.35;9.28;;;;;;;7.54;77.05;100262.44;1814381;78;21212;-56
2023/03/06 00:53:17;;;;;;;24.72;8.65;;;;;;;7.49;77.37;100264.37;1813847;79;21054;-57
2023/03/06 00:55:46;;;;;;;23.65;8.68;;;;;;;7.47;77.46;100261.81;1813806;79;21051;-56
2023/03/06 00:58:14;;;;;;;30.88;7.67;;;;;;;7.37;77.87;100267.40;1815768;78;21568;-59
2023/03/06 01:00:45;;;;;;;22.32;8.05;;;;;;;7.31;78.20;100265.38;1813729;79;21142;-56
2023/03/06 01:03:13;;;;;;;24.60;8.20;;;;;;;7.28;78.36;100261.55;1813826;78;21118;-56
2023/03/06 01:05:42;;;;;;;22.15;7.50;;;;;;;7.25;78.46;100252.50;1813801;79;21102;-56
2023/03/06 01:08:10;;;;;;;26.52;9.63;;;;;;;7.21;79.02;100250.02;1817767;78;21027;-49
2023/03/06 01:10:40;;;;;;;31.05;9.30;;;;;;;7.18;79.30;100253.61;1817223;78;21054;-54
2023/03/06 01:13:10;;;;;;;27.37;8.63;;;;;;;7.15;79.63;100258.94;1816367;78;21050;-51
2023/03/06 01:15:38;;;;;;;30.97;10.85;;;;;;;7.15;79.81;100255.00;1816579;79;21054;-57
2023/03/06 01:18:07;;;;;;;36.53;12.80;;;;;;;7.16;79.92;100248.88;1819045;78;21046;-49
2023/03/06 01:20:37;;;;;;;33.28;12.73;;;;;;;7.16;80.12;100246.26;1815373;78;21579;-58
2023/03/06 01:23:06;;;;;;;31.57;9.90;;;;;;;7.18;80.19;100239.20;1816668;79;21540;-56
2023/03/06 01:25:34;;;;;;;25.55;8.88;;;;;;;7.19;80.23;100235.66;1816685;79;21026;-54
2023/03/06 01:28:03;;;;;;;24.20;8.25;;;;;;;7.18;80.35;100223.50;1839671;78;21039;-56
2023/03/06 01:30:31;;;;;;;24.30;8.28;;;;;;;7.14;80.50;100220.13;1843651;78;21584;-53
2023/03/06 01:33:02;;;;;;;26.55;9.75;;;;;;;7.14;80.59;100218.81;1844230;78;21063;-53
2023/03/06 01:35:30;;;;;;;27.93;9.83;;;;;;;7.13;80.71;100218.86;1844227;78;21109;-51
2023/03/06 01:37:59;;;;;;;24.57;9.43;;;;;;;7.13;80.80;100214.93;1841801;78;21027;-52
2023/03/06 01:40:29;;;;;;;24.85;8.25;;;;;;;7.08;80.98;100217.72;1838684;78;21470;-54
2023/03/06 01:42:58;;;;;;;26.62;10.13;;;;;;;7.03;81.13;100209.16;1816699;79;21108;-52
2023/03/06 01:45:29;;;;;;;25.90;10.20;;;;;;;7.04;81.12;100212.61;1819107;76;21058;-51
2023/03/06 01:47:58;;;;;;;27.98;10.20;;;;;;;7.05;81.10;100205.18;1861752;76;21068;-52
2023/03/06 01:50:27;;;;;;;26.87;10.23;;;;;;;7.04;81.20;100196.91;1859679;77;21032;-54
2023/03/06 01:52:58;;;;;;;29.65;10.08;;;;;;;7.06;81.24;100204.25;1859721;77;21570;-56
2023/03/06 01:55:30;;;;;;;32.28;10.40;;;;;;;7.03;81.32;100197.83;1859642;77;21527;-54
2023/03/06 01:58:01;;;;;;;34.73;10.78;;;;;;;7.00;81.45;100194.84;1875274;76;21490;-54
2023/03/06 02:00:30;;;;;;;32.15;9.80;;;;;;;7.00;81.49;100188.30;1891356;76;21105;-55
2023/03/06 02:03:14;;;;;;;29.32;10.68;;;;;;;7.01;81.56;100186.09;1891483;76;21584;-54
2023/03/06 02:05:43;;;;;;;;;;;;;;;6.99;81.71;100187.91;1893874;75;21113;-54
2023/03/06 02:08:14;;;;;;;31.45;9.85;;;;;;;6.97;81.65;100185.77;1889140;75;20965;-54
2023/03/06 02:11:10;;;;;;;30.00;10.25;;;;;;;6.95;81.79;100181.05;1891492;76;21482;-55
2023/03/06 02:13:39;;;;;;;31.77;10.98;;;;;;;6.95;82.01;100175.38;1891378;75;21498;-54
2023/03/06 02:16:10;;;;;;;34.67;11.57;;;;;;;7.03;81.85;100167.73;1891221;76;21434;-54
2023/03/06 02:18:40;;;;;;;28.65;10.38;;;;;;;7.04;81.96;100170.73;1889146;76;21031;-54
2023/03/06 02:21:12;;;;;;;33.80;11.20;;;;;;;7.07;81.87;100169.33;1884326;76;21473;-59
2023/03/06 02:24:08;;;;;;;27.30;11.18;;;;;;;7.05;81.87;100159.37;1884762;76;21125;-50
2023/03/06 02:26:37;;;;;;;33.38;9.58;;;;;;;7.02;81.92;100154.23;1891427;76;21055;-54
2023/03/06 02:29:08;;;;;;;27.58;10.23;;;;;;;7.00;81.94;100149.03;1889388;75;21027;-55
2023/03/06 02:31:37;;;;;;;27.02;9.83;;;;;;;6.99;82.02;100153.89;1891474;76;21493;-54
2023/03/06 02:34:09;;;;;;;29.70;10.98;;;;;;;6.98;82.00;100155.24;1891522;76;21066;-53
2023/03/06 02:36:41;;;;;;;31.95;10.98;;;;;;;6.97;82.13;100151.75;1892595;75;21035;-53
2023/03/06 02:39:10;;;;;;;30.08;10.38;;;;;;;6.95;82.20;100147.90;1890299;76;21106;-48
2023/03/06 02:41:39;;;;;;;26.15;10.72;;;;;;;6.92;82.29;100150.61;1891226;76;21485;-51
2023/03/06 02:44:08;;;;;;;28.40;9.78;;;;;;;6.89;82.48;100145.92;1881062;76;21488;-52
2023/03/06 02:46:37;;;;;;;31.85;12.35;;;;;;;6.88;82.54;100152.94;1855013;76;21125;-50
2023/03/06 02:49:05;;;;;;;30.82;9.83;;;;;;;6.87;82.57;100145.13;1841616;78;21053;-49
2023/03/06 02:51:34;;;;;;;23.67;9.43;;;;;;;6.83;82.74;100143.06;1843578;77;21530;-48
2023/03/06 02:54:03;;;;;;;25.68;10.25;;;;;;;6.75;83.35;100149.86;1861728;77;21125;-47
2023/03/06 02:56:31;;;;;;;31.02;12.30;;;;;;;6.61;83.73;100151.22;1872743;77;21043;-47
2023/03/06 02:59:00;;;;;;;23.00;9.00;;;;;;;6.53;83.69;100154.08;1863767;77;21127;-49
2023/03/06 03:01:29;;;;;;;28.23;10.45;;;;;;;6.48;83.66;100158.13;1854699;76;21106;-47
2023/03/06 03:03:57;;;;;;;28.32;12.05;;;;;;;6.43;83.60;100158.72;1872667;76;21040;-47
2023/03/06 03:06:26;;;;;;;37.60;12.13;;;;;;;6.31;83.85;100162.58;1872768;76;21079;-56
2023/03/06 03:08:55;;;;;;;36.75;14.58;;;;;;;6.16;84.04;100169.14;1870553;77;21067;-56
2023/03/06 03:11:24;;;;;;;37.30;14.58;;;;;;;6.07;84.04;100167.22;1872740;77;21137;-57
2023/03/06 03:13:53;;;;;;;33.33;13.30;;;;;;;6.00;84.06;100165.27;1872490;77;21056;-56
2023/03/06 03:16:23;;;;;;;26.37;9.48;;;;;;;5.97;84.00;100163.58;1872488;75;21145;-57
2023/03/06 03:18:51;;;;;;;29.23;13.03;;;;;;;5.91;84.10;100166.34;1872823;77;21040;-56
2023/03/06 03:21:22;;;;;;;18.95;8.40;;;;;;;5.79;84.45;100161.46;1870437;77;21044;-56
2023/03/06 03:23:50;;;;;;;27.73;9.03;;;;;;;5.75;84.99;100169.84;1872480;76;21032;-59
2023/03/06 03:26:21;;;;;;;23.45;9.60;;;;;;;5.67;84.77;100170.97;1872748;75;21043;-48
2023/03/06 03:28:51;;;;;;;22.98;9.38;;;;;;;5.63;84.91;100173.27;1849921;76;21097;-49
2023/03/06 03:31:20;;;;;;;27.58;9.93;;;;;;;5.57;84.98;100169.92;1842214;77;21133;-51
2023/03/06 03:33:49;;;;;;;29.70;11.75;;;;;;;5.49;84.73;100176.24;1841741;77;21063;-48
2023/03/06 03:36:18;;;;;;;35.00;12.25;;;;;;;5.38;84.65;100183.91;1841752;78;21506;-47
2023/03/06 03:38:48;;;;;;;24.23;10.13;;;;;;;5.35;84.44;100180.09;1843712;77;21508;-48
2023/03/06 03:41:16;;;;;;;26.05;9.68;;;;;;;5.31;84.36;100190.64;1844168;77;21167;-49
2023/03/06 03:43:45;;;;;;;21.37;8.83;;;;;;;5.23;84.42;100193.45;1872670;77;21126;-48
2023/03/06 03:46:14;;;;;;;23.00;9.68;;;;;;;5.16;84.28;100198.41;1867221;76;21616;-50
2023/03/06 03:48:43;;;;;;;26.02;9.75;;;;;;;5.11;84.05;100197.67;1876501;76;21079;-56
2023/03/06 03:51:15;;;;;;;23.98;9.08;;;;;;;5.01;84.04;100200.51;1860008;76;21042;-56
2023/03/06 03:53:46;;;;;;;24.65;9.88;;;;;;;4.94;84.05;100210.71;1859593;77;21175;-58
2023/03/06 03:56:16;;;;;;;15.28;6.30;;;;;;;4.92;84.05;100204.64;1859689;77;21117;-57
2023/03/06 03:58:49;;;;;;;;;;;;;;;4.86;83.87;100215.23;1863468;75;21556;-59
2023/03/06 04:01:18;;;;;;;21.57;7.47;;;;;;;4.76;83.94;100209.84;1881697;76;20155;-55
2023/03/06 04:03:47;;;;;;;18.73;6.58;;;;;;;4.67;84.02;100209.61;1859717;77;21049;-57
2023/03/06 04:06:17;;;;;;;18.10;7.42;;;;;;;4.61;84.01;100212.34;1859826;77;21444;-56
2023/03/06 04:08:46;;;;;;;17.85;7.87;;;;;;;4.59;83.99;100222.83;1859672;77;21606;-56
2023/03/06 04:11:15;;;;;;;21.23;7.78;;;;;;;4.50;84.04;100225.64;1862042;76;21323;-48
2023/03/06 04:13:44;;;;;;;17.15;6.28;;;;;;;4.48;84.08;100220.88;1859730;77;21480;-56
2023/03/06 04:16:12;;;;;;;17.60;6.92;;;;;;;4.43;84.11;100217.55;1859967;76;21009;-54
2023/03/06 04:18:41;;;;;;;20.48;8.20;;;;;;;4.44;84.06;100224.03;1859742;77;21088;-56
2023/03/06 04:21:10;;;;;;;21.57;7.65;;;;;;;4.47;83.95;100228.31;1861682;76;21009;-48
2023/03/06 04:23:40;;;;;;;10.85;5.10;;;;;;;4.51;83.72;100227.80;1859865;76;21503;-49
2023/03/06 04:26:09;;;;;;;23.18;8.00;;;;;;;4.51;83.55;100226.49;1859794;77;21157;-51
2023/03/06 04:28:39;;;;;;;17.62;6.95;;;;;;;4.49;83.40;100231.73;1859791;77;21106;-47
2023/03/06 04:31:08;;;;;;;16.67;6.30;;;;;;;4.53;83.22;100237.28;1861818;76;21060;-50
2023/03/06 04:33:37;;;;;;;13.98;6.87;;;;;;;4.57;82.99;100240.69;1859649;77;21535;-55
2023/03/06 04:36:07;;;;;;;11.20;4.78;;;;;;;4.60;82.81;100254.97;1859727;77;21534;-56
2023/03/06 04:38:35;;;;;;;19.30;7.65;;;;;;;4.63;82.79;100255.77;1860027;76;21118;-54
2023/03/06 04:41:06;;;;;;;18.00;8.33;;;;;;;4.72;82.45;100254.70;1862118;76;21195;-57
2023/03/06 04:43:34;;;;;;;16.10;6.95;;;;;;;4.76;82.18;100248.97;1891484;76;21121;-56
2023/03/06 04:46:03;;;;;;;15.88;5.95;;;;;;;4.73;82.22;100251.64;1891334;75;21015;-57
2023/03/06 04:48:31;;;;;;;22.10;8.55;;;;;;;4.75;82.31;100253.77;1882608;76;21141;-56
2023/03/06 04:51:00;;;;;;;19.12;8.25;;;;;;;4.78;82.24;100257.62;1872703;77;21028;-55
2023/03/06 04:53:29;;;;;;;18.32;7.47;;;;;;;4.77;82.21;100251.98;1870567;77;21028;-55
2023/03/06 04:55:58;;;;;;;20.20;7.58;;;;;;;4.82;82.05;100261.41;1872763;76;21032;-56
2023/03/06 04:58:27;;;;;;;19.57;7.50;;;;;;;4.83;81.97;100264.86;1872812;77;21036;-56
2023/03/06 05:00:56;;;;;;;18.00;7.45;;;;;;;4.86;81.96;100271.33;1872674;77;21083;-56
2023/03/06 05:03:24;;;;;;;19.23;7.60;;;;;;;4.89;81.97;100276.48;1870475;77;21103;-56
2023/03/06 05:05:53;;;;;;;22.60;8.48;;;;;;;4.93;81.68;100275.52;1872693;77;21033;-56
2023/03/06 05:08:22;;;;;;;19.80;7.65;;;;;;;4.94;81.60;100280.28;1872906;77;21523;-56
2023/03/06 05:10:57;;;;;;;22.50;8.70;;;;;;;4.95;81.62;100280.25;1872789;76;21463;-55
2023/03/06 05:13:27;;;;;;;22.75;8.20;;;;;;;4.99;81.39;100281.03;1869371;76;21091;-56
2023/03/06 05:15:57;;;;;;;21.48;8.53;;;;;;;4.96;81.44;100287.20;1872509;77;21165;-55
2023/03/06 05:18:25;;;;;;;20.80;7.97;;;;;;;4.93;81.57;100282.04;1872579;76;21083;-54
2023/03/06 05:20:58;;;;;;;17.73;6.85;;;;;;;4.92;81.61;100276.84;1872729;77;21036;-55
2023/03/06 05:23:25;;;;;;;15.90;6.95;;;;;;;4.92;81.70;100284.67;1870277;76;21102;-55
2023/03/06 05:25:53;;;;;;;21.07;8.30;;;;;;;4.93;81.63;100293.78;1872512;77;21639;-58
2023/03/06 05:28:22;;;;;;;19.95;6.22;;;;;;;4.95;81.48;100288.08;1872678;77;21040;-57
2023/03/06 05:30:51;;;;;;;19.73;8.18;;;;;;;4.96;81.41;100291.11;1872900;77;21122;-57
2023/03/06 05:33:20;;;;;;;21.00;8.03;;;;;;;4.91;81.58;100289.50;1868115;76;21462;-58
2023/03/06 05:35:49;;;;;;;30.15;8.85;;;;;;;4.93;81.53;100289.86;1841611;78;21134;-58
2023/03/06 05:38:22;;;;;;;18.77;7.58;;;;;;;4.96;81.48;100289.80;1841557;78;21491;-58
2023/03/06 05:40:50;;;;;;;19.48;7.47;;;;;;;5.01;81.49;100292.29;1841580;78;21542;-49
2023/03/06 05:43:19;;;;;;;19.42;7.80;;;;;;;5.03;81.37;100293.99;1841545;78;21055;-48
2023/03/06 05:45:49;;;;;;;21.93;8.05;;;;;;;4.99;81.50;100294.93;1843878;77;21061;-46
2023/03/06 05:48:17;;;;;;;16.73;6.87;;;;;;;5.00;81.54;100300.58;1841794;77;21553;-47
2023/03/06 05:50:46;;;;;;;22.00;8.50;;;;;;;5.06;81.47;100298.72;1841347;77;21095;-56
2023/03/06 05:53:15;;;;;;;22.52;8.93;;;;;;;5.07;81.47;100299.12;1841566;78;21532;-54
2023/03/06 05:55:43;;;;;;;19.70;7.25;;;;;;;5.12;81.46;100302.48;1843637;77;21045;-55
2023/03/06 05:58:12;;;;;;;17.92;7.62;;;;;;;5.12;81.52;100309.00;1841619;78;21045;-53
2023/03/06 06:00:40;;;;;;;20.52;7.65;;;;;;;5.13;81.61;100315.95;1841682;78;21052;-52
2023/03/06 06:03:09;;;;;;;22.87;8.38;;;;;;;5.17;81.51;100318.90;1861073;77;21036;-55
2023/03/06 06:05:39;;;;;;;22.32;9.23;;;;;;;5.15;81.48;100320.69;1864745;77;21192;-54
2023/03/06 06:08:08;;;;;;;20.10;7.15;;;;;;;5.13;81.58;100321.17;1843580;77;21024;-50
2023/03/06 06:10:36;;;;;;;17.02;7.30;;;;;;;5.15;81.51;100324.15;1871431;77;21071;-47
2023/03/06 06:13:06;;;;;;;25.08;9.60;;;;;;;5.21;81.22;100323.14;1870567;76;21036;-48
2023/03/06 06:15:34;;;;;;;18.17;8.05;;;;;;;5.22;81.11;100324.87;1872595;76;21494;-50
2023/03/06 06:18:03;;;;;;;20.12;7.28;;;;;;;5.22;81.04;100328.34;1872579;76;21016;-53
2023/03/06 06:20:32;;;;;;;24.15;7.90;;;;;;;5.22;81.20;100332.70;1872702;77;21110;-49
2023/03/06 06:23:01;;;;;;;19.12;7.47;;;;;;;5.25;81.18;100332.61;1870336;77;21122;-48
2023/03/06 06:25:29;;;;;;;20.65;9.05;;;;;;;5.27;81.21;100337.80;1872602;77;21110;-59
2023/03/06 06:27:58;;;;;;;19.90;7.67;;;;;;;5.24;81.33;100334.83;1872709;77;21036;-59
2023/03/06 06:30:27;;;;;;;22.20;8.60;;;;;;;5.28;81.13;100339.08;1872505;76;21052;-55
2023/03/06 06:32:55;;;;;;;17.42;7.90;;;;;;;5.31;81.06;100341.63;1870437;76;21020;-54
2023/03/06 06:35:24;;;;;;;17.17;6.22;;;;;;;5.38;80.90;100340.55;1872726;77;21036;-54
2023/03/06 06:37:53;;;;;;;13.28;6.00;;;;;;;5.40;80.67;100333.58;1854910;77;21045;-54
2023/03/06 06:40:23;;;;;;;18.87;7.50;;;;;;;5.40;80.42;100330.96;1841733;78;21061;-54
2023/03/06 06:42:52;;;;;;;19.77;7.22;;;;;;;5.41;80.23;100339.19;1842325;77;21103;-52
2023/03/06 06:45:21;;;;;;;17.70;8.03;;;;;;;5.44;80.11;100337.39;1841743;76;21081;-54
2023/03/06 06:47:50;;;;;;;18.55;7.25;;;;;;;5.46;80.08;100338.21;1841489;78;21128;-54
2023/03/06 06:50:19;;;;;;;19.07;8.25;;;;;;;5.49;80.09;100339.00;1826727;77;21094;-56
2023/03/06 06:52:48;;;;;;;20.00;8.30;;;;;;;5.59;80.08;100339.65;1816670;79;21058;-56
2023/03/06 06:55:17;;;;;;;20.12;7.50;;;;;;;5.68;80.11;100344.64;1836075;77;21081;-56
2023/03/06 06:57:46;;;;;;;17.30;8.98;;;;;;;5.82;80.04;100353.88;1836895;77;21513;-56
2023/03/06 07:00:15;;;;;;;22.65;8.55;;;;;;;5.95;79.92;100349.62;1839024;77;21054;-56
2023/03/06 07:02:47;;;;;;;15.23;6.62;;;;;;;6.07;79.79;100360.22;1867733;77;21121;-55
2023/03/06 07:05:15;;;;;;;23.80;9.70;;;;;;;6.15;79.77;100370.47;1862945;77;21039;-53
2023/03/06 07:07:44;;;;;;;17.55;8.48;;;;;;;6.19;79.51;100379.48;1861267;76;21454;-57
2023/03/06 07:10:15;;;;;;;17.55;8.15;;;;;;;6.24;79.38;100374.59;1867486;77;21124;-55
2023/03/06 07:12:44;;;;;;;17.20;7.08;;;;;;;6.27;79.19;100376.69;1867838;76;21042;-55
2023/03/06 07:15:14;;;;;;;19.85;7.40;;;;;;;6.27;79.00;100375.80;1867847;77;21112;-56
2023/03/06 07:17:43;;;;;;;17.82;8.15;;;;;;;6.25;78.80;100374.98;1864363;77;21066;-56
2023/03/06 07:20:12;;;;;;;18.07;7.28;;;;;;;6.28;78.81;100374.92;1867767;75;21128;-57
2023/03/06 07:22:41;;;;;;;19.73;7.37;;;;;;;6.28;78.73;100369.69;1864372;77;21117;-57
2023/03/06 07:25:10;;;;;;;13.13;4.45;;;;;;;6.29;78.57;100372.69;1860391;77;21039;-58
2023/03/06 07:27:39;;;;;;;17.25;6.80;;;;;;;6.28;78.57;100367.92;1860792;77;21560;-47
2023/03/06 07:30:09;;;;;;;11.40;4.67;;;;;;;6.26;78.31;100373.64;1867307;77;21085;-48
2023/03/06 07:32:37;;;;;;;11.12;5.60;;;;;;;6.25;78.02;100368.45;1867801;77;21159;-51
2023/03/06 07:35:06;;;;;;;11.30;6.03;;;;;;;6.24;77.81;100371.52;1867769;77;21110;-49
2023/03/06 07:37:35;;;;;;;22.73;9.50;;;;;;;6.19;77.30;100366.41;1867787;77;21120;-53
2023/03/06 07:40:05;;;;;;;15.20;8.75;;;;;;;6.17;77.01;100368.20;1863501;77;21034;-48
2023/03/06 07:42:34;;;;;;;23.92;10.08;;;;;;;6.13;76.44;100367.03;1867809;77;21046;-48
2023/03/06 07:45:05;;;;;;;15.48;6.65;;;;;;;6.10;76.46;100371.03;1867754;77;21136;-59
2023/03/06 07:47:33;;;;;;;6.00;2.85;;;;;;;6.12;76.20;100370.53;1867620;77;21058;-59
2023/03/06 07:50:04;;;;;;;13.22;4.90;;;;;;;6.10;75.83;100364.49;1851578;77;21528;-58
2023/03/06 07:52:33;;;;;;;7.80;4.03;;;;;;;6.10;75.62;100364.49;1859924;77;21045;-58
2023/03/06 07:55:01;;;;;;;23.98;9.65;;;;;;;6.12;75.70;100363.58;1860017;77;21139;-58
2023/03/06 07:57:30;;;;;;;13.25;5.40;;;;;;;6.16;75.78;100361.28;1859890;77;21118;-58
2023/03/06 07:59:58;;;;;;;16.05;6.90;;;;;;;6.18;75.02;100364.70;1862357;76;21044;-58
2023/03/06 08:02:27;;;;;;;18.67;6.58;;;;;;;6.22;75.44;100375.09;1860738;76;21074;-55
2023/03/06 08:04:56;;;;;;;12.85;5.20;;;;;;;6.27;75.39;100381.91;1859906;77;21091;-55
2023/03/06 08:07:25;;;;;;;16.75;7.72;;;;;;;6.31;75.30;100389.23;1860109;76;21047;-55
2023/03/06 08:09:53;;;;;;;22.35;9.08;;;;;;;6.38;75.47;100390.75;1867645;76;21079;-58
2023/03/06 08:12:22;;;;;;;19.95;7.50;;;;;;;6.44;75.40;100402.37;1889138;76;21104;-60
2023/03/06 08:14:50;;;;;;;17.05;7.47;;;;;;;6.48;75.49;100405.30;1862017;76;21003;-55
2023/03/06 08:17:19;;;;;;;16.52;7.22;;;;;;;6.55;75.52;100410.77;1859956;77;21046;-55
2023/03/06 08:19:48;;;;;;;18.32;6.53;;;;;;;6.64;75.55;100407.48;1875790;76;21058;-50
2023/03/06 08:22:16;;;;;;;18.92;7.62;;;;;;;6.71;75.51;100419.48;1889208;76;21542;-55
2023/03/06 08:24:45;;;;;;;19.42;7.22;;;;;;;6.82;75.41;100421.81;1891597;76;21105;-60
2023/03/06 08:27:14;;;;;;;14.95;6.17;;;;;;;6.92;75.33;100431.13;1891595;76;21039;-50
2023/03/06 08:29:42;;;;;;;15.63;6.42;;;;;;;7.02;75.30;100438.25;1891571;76;21043;-57
2023/03/06 08:32:12;;;;;;;18.55;7.47;;;;;;;7.12;75.28;100435.32;1889325;76;21067;-54
2023/03/06 08:34:41;;;;;;;21.97;7.85;;;;;;;7.14;75.13;100439.21;1891559;76;21556;-54
2023/03/06 08:37:10;;;;;;;18.77;7.17;;;;;;;7.03;74.95;100440.83;1891434;76;21108;-52
2023/03/06 08:39:38;;;;;;;17.92;7.40;;;;;;;7.07;75.29;100448.14;1889560;76;21008;-53
2023/03/06 08:42:09;;;;;;;16.55;6.15;;;;;;;7.10;75.38;100454.58;1890527;76;21039;-53
2023/03/06 08:44:37;;;;;;;17.35;6.92;;;;;;;7.03;75.45;100458.30;1891529;76;21539;-50
2023/03/06 08:47:06;;;;;;;18.20;7.17;;;;;;;7.07;75.71;100473.02;1891613;76;21130;-58
2023/03/06 08:49:37;;;;;;;18.05;6.35;;;;;;;7.13;75.73;100471.06;1891552;76;21015;-52
2023/03/06 08:52:06;;;;;;;13.58;6.40;;;;;;;7.20;75.75;100478.76;1859056;75;21078;-58
2023/03/06 08:54:37;;;;;;;15.05;7.00;;;;;;;7.33;75.72;100481.41;1841437;78;21050;-50
2023/03/06 08:57:08;;;;;;;17.02;6.83;;;;;;;7.42;75.60;100481.14;1841474;78;21038;-52
2023/03/06 08:59:36;;;;;;;15.58;7.35;;;;;;;7.53;75.49;100491.30;1841556;78;21109;-54
2023/03/06 09:02:06;;;;;;;20.25;8.60;;;;;;;7.58;75.38;100495.95;1843501;77;21099;-54
2023/03/06 09:04:35;;;;;;;16.82;7.15;;;;;;;7.60;75.38;100502.00;1845454;77;21437;-55
2023/03/06 09:07:04;;;;;;;23.30;8.38;;;;;;;7.54;75.26;100508.72;1841491;77;21131;-58
2023/03/06 09:09:32;;;;;;;21.05;8.90;;;;;;;7.46;75.27;100519.89;1841414;78;21111;-61
2023/03/06 09:12:01;;;;;;;17.12;7.33;;;;;;;7.42;75.45;100526.13;1843554;77;21566;-59
2023/03/06 09:14:30;;;;;;;18.98;8.05;;;;;;;7.39;75.49;100527.06;1871017;77;21031;-57
2023/03/06 09:16:59;;;;;;;17.17;6.55;;;;;;;7.40;75.40;100533.18;1872442;77;21552;-59
2023/03/06 09:19:27;;;;;;;17.75;7.40;;;;;;;7.37;74.97;100536.73;1872537;77;21052;-57
2023/03/06 09:21:58;;;;;;;20.65;8.53;;;;;;;7.45;74.90;100543.05;1872717;76;21048;-57
2023/03/06 09:24:26;;;;;;;18.37;7.78;;;;;;;7.53;75.11;100541.08;1870277;77;21075;-50
2023/03/06 09:26:55;;;;;;;17.07;7.92;;;;;;;7.57;75.01;100547.94;1871578;76;21499;-59
2023/03/06 09:29:49;;;;;;;16.85;7.42;;;;;;;7.56;74.95;100551.91;1870848;75;21028;-48
2023/03/06 09:32:18;;;;;;;17.73;7.53;;;;;;;7.50;75.00;100551.64;1845165;77;21680;-55
2023/03/06 09:34:47;;;;;;;18.62;7.05;;;;;;;7.52;75.11;100555.06;1857829;77;21013;-55
2023/03/06 09:37:16;;;;;;;16.93;7.62;;;;;;;7.52;75.07;100559.88;1854140;77;21095;-53
2023/03/06 09:39:44;;;;;;;17.15;7.53;;;;;;;7.55;75.02;100564.16;1851538;77;21538;-59
2023/03/06 09:42:19;;;;;;;11.60;6.15;;;;;;;7.53;75.12;100573.83;1853552;77;21127;-61
2023/03/06 09:44:54;;;;;;;18.17;7.58;;;;;;;7.54;74.89;100572.48;1854606;77;21008;-57
2023/03/06 09:47:42;;;;;;;16.30;6.30;;;;;;;7.57;74.89;100577.22;1843052;77;21776;-54
2023/03/06 09:50:19;;;;;;;17.00;7.85;;;;;;;7.64;74.70;100584.85;1859190;77;21533;-58
2023/03/06 09:53:02;;;;;;;17.02;6.95;;;;;;;7.68;74.50;100590.41;1863034;76;21126;-60
2023/03/06 09:55:34;;;;;;;26.27;9.28;;;;;;;7.69;74.21;100590.82;1795857;78;21047;-57
2023/03/06 09:58:06;;;;;;;16.62;6.33;;;;;;;7.85;74.03;100595.59;1869164;75;21708;-59
2023/03/06 10:00:54;;;;;;;18.23;7.70;;;;;;;7.97;73.94;100590.42;1873182;76;21016;-59
2023/03/06 10:06:48;;;;;;;21.42;7.95;;;;;;;8.25;73.29;100604.88;1854156;77;21025;-60
2023/03/06 10:09:31;;;;;;;17.17;7.05;;;;;;;8.39;72.88;100607.92;1854858;77;21156;-58
2023/03/06 10:12:06;;;;;;;19.07;6.62;;;;;;;8.60;72.69;100618.66;1837394;77;21126;-58
2023/03/06 10:14:51;;;;;;;15.65;5.72;;;;;;;8.80;71.88;100617.53;1851948;77;21533;-57
2023/03/06 10:17:22;;;;;;;20.05;7.37;;;;;;;9.03;71.73;100613.27;1856833;77;21104;-55
2023/03/06 10:19:51;;;;;;;16.82;7.70;;;;;;;9.24;71.12;100620.41;1855858;77;21218;-55
2023/03/06 10:22:38;;;;;;;14.65;5.62;;;;;;;9.35;70.77;100622.66;1853697;76;21253;-57
2023/03/06 10:25:26;;;;;;;16.85;6.65;;;;;;;9.44;70.39;100628.01;1855593;77;21134;-49
2023/03/06 10:28:01;;;;;;;17.15;7.45;;;;;;;9.50;70.10;100631.75;1852204;77;21091;-59
2023/03/06 10:30:44;;;;;;;15.00;6.00;;;;;;;9.55;69.56;100635.05;1861843;76;21042;-59
2023/03/06 10:33:31;;;;;;;21.15;7.35;;;;;;;9.62;69.10;100635.22;1847251;77;21006;-59
2023/03/06 10:35:59;;;;;;;18.92;7.60;;;;;;;9.90;68.86;100633.34;1843729;76;21049;-58
2023/03/06 10:38:31;;;;;;;18.17;7.37;;;;;;;10.25;68.22;100642.50;1852324;76;21101;-59
2023/03/06 10:41:15;;;;;;;13.68;5.70;;;;;;;10.40;66.96;100642.39;1854568;77;21042;-59
2023/03/06 10:43:47;;;;;;;;;;;;;;;10.39;65.91;100642.85;1858675;77;21199;-60
2023/03/06 10:46:18;;;;;;;11.38;4.85;;;;;;;10.56;61.93;100645.27;1850570;76;20221;-59
2023/03/06 10:48:49;;;;;;;14.07;4.58;;;;;;;10.62;63.13;100646.33;1858086;76;21119;-59
2023/03/06 10:51:23;;;;;;;11.08;4.03;;;;;;;10.66;61.77;100651.89;1854762;76;21112;-60
2023/03/06 10:53:58;;;;;;;9.03;4.20;;;;;;;10.76;62.17;100651.89;1852604;77;21052;-59
2023/03/06 10:56:38;;;;;;;10.23;4.05;;;;;;;10.80;61.62;100657.89;1855698;77;21160;-61
2023/03/06 10:59:09;;;;;;;9.80;4.10;;;;;;;10.76;61.54;100654.53;1853432;76;21059;-60
2023/03/06 11:01:41;;;;;;;12.13;4.25;;;;;;;10.93;61.40;100661.72;1855773;77;21513;-60
2023/03/06 11:04:36;;;;;;;7.92;3.17;;;;;;;11.16;58.53;100666.52;1855629;76;21026;-61
2023/03/06 11:07:16;;;;;;;7.58;3.10;;;;;;;11.42;59.05;100671.97;1855214;77;21153;-60
2023/03/06 11:10:00;;;;;;;7.00;3.15;;;;;;;11.48;58.54;100675.64;1856824;76;21131;-55
2023/03/06 11:12:31;;;;;;;;;;;;;;;11.47;58.54;100684.50;1857234;77;21033;-55
2023/03/06 11:15:19;;;;;;;14.07;3.87;;;;;;;11.45;56.99;100690.27;1844563;77;20173;-55
2023/03/06 11:18:03;;;;;;;10.25;4.20;;;;;;;11.45;56.58;100703.45;1854586;77;21112;-58
2023/03/06 11:20:47;;;;;;;6.85;2.80;;;;;;;11.74;55.49;100702.65;1851225;77;21118;-53
2023/03/06 11:23:30;;;;;;;7.53;2.83;;;;;;;12.06;54.83;100707.84;1855099;77;21022;-54
2023/03/06 11:26:18;;;;;;;8.50;3.00;;;;;;;12.45;53.43;100717.91;1846639;77;21526;-57
2023/03/06 11:29:18;;;;;;;5.35;1.82;;;;;;;12.33;52.17;100712.28;1857384;76;21549;-57
2023/03/06 11:32:05;;;;;;;6.22;2.50;;;;;;;12.36;48.90;100721.87;1865847;76;21073;-54
2023/03/06 11:34:43;;;;;;;10.28;3.92;;;;;;;12.19;50.96;100729.25;1854570;76;21588;-54
2023/03/06 11:37:23;;;;;;;7.50;2.75;;;;;;;12.22;50.43;100730.41;1853666;76;21058;-59
2023/03/06 11:40:12;;;;;;;7.72;2.27;;;;;;;12.23;49.79;100731.26;1850746;77;21514;-55
2023/03/06 11:42:47;;;;;;;7.47;2.50;;;;;;;12.18;49.12;100734.12;1851098;77;21050;-58
2023/03/06 11:45:39;;;;;;;4.92;2.12;;;;;;;12.22;49.37;100740.97;1856832;77;21125;-60